Flight Track Log - Related Links

Times and Time Zones

All times are in EDT time to prevent confusion due to time zone crossing. See the JST789 flight status page for this flight to view local times or setup timezone preferences in your user account.

Time Position Orientation Groundspeed Altitude Reporting Facility
EDT Latitude Longitude Course Direction KTS km/h feet Rate Location/Type
Mon 04:32:04 AM -26.5735 153.1017 117° Southeast 146 270 1.500  Level Aus ATC (RADAR)
Mon 04:32:59 AM -26.5955 153.1502 117° Southeast 227 420 3.000 1.543 Climbing Aus ATC (RADAR)
Mon 04:33:14 AM -26.6120 153.1546 167° South 239 443 3.300 2.520 Climbing Aus ATC (RADAR)
Mon 04:33:49 AM -26.6561 153.1625 171° South 274 507 5.100 2.867 Climbing Aus ATC (RADAR)
Mon 04:34:44 AM -26.7100 153.2193 137° Southeast 292 541 7.600 2.022 Climbing Aus ATC (RADAR)
Mon 04:35:18 AM -26.7421 153.2611 131° Southeast 299 554 8.100 270 Climbing Aus ATC (RADAR)
Mon 04:36:13 AM -26.7936 153.3246 132° Southeast 296 549 8.000 -86 Descending Aus ATC (RADAR)
Mon 04:36:28 AM -26.8076 153.3426 131° Southeast 297 550 8.000 120 Level Aus ATC (RADAR)
Mon 04:37:03 AM -26.8493 153.3650 154° Southeast 300 555 8.100 1.771 Climbing Aus ATC (RADAR)
Mon 04:38:13 AM -26.9386 153.3593 183° South 278 515 11.100 2.200 Climbing Aus ATC (RADAR)
Mon 04:38:33 AM -26.9664 153.3587 181° South 295 546 11.400 1.091 Climbing Aus ATC (RADAR)
Mon 04:39:08 AM -27.0210 153.3573 181° South 335 621 12.100 1.360 Climbing Aus ATC (RADAR)
Mon 04:39:48 AM -27.0904 153.3550 182° South 376 697 13.100 1.840 Climbing Aus ATC (RADAR)
Mon 04:40:23 AM -27.1532 153.3532 181° South 388 719 14.400 2.133 Climbing Aus ATC (RADAR)
Mon 04:41:18 AM -27.2548 153.3504 181° South 401 742 16.300 1.971 Climbing Aus ATC (RADAR)
Mon 04:41:33 AM -27.2831 153.3498 181° South 405 750 16.700 1.560 Climbing Aus ATC (RADAR)
Mon 04:42:08 AM -27.3513 153.3475 182° South 420 777 17.600 2.114 Climbing Aus ATC (RADAR)
Mon 04:43:18 AM -27.4717 153.2883 204° Southwest 403 747 20.400 2.400 Climbing Aus ATC (RADAR)
Mon 04:43:33 AM -27.4969 153.2734 208° Southwest 405 750 21.000 1.680 Climbing Aus ATC (RADAR)
Mon 04:44:08 AM -27.5552 153.2397 207° Southwest 406 752 21.800 1.685 Climbing Aus ATC (RADAR)
Mon 04:45:02 AM -27.6481 153.1853 207° Southwest 408 756 23.500 1.533 Climbing Aus ATC (RADAR)
Mon 04:45:38 AM -27.7078 153.1502 208° Southwest 417 772 24.100 1.067 Climbing Aus ATC (RADAR)
Mon 04:46:32 AM -27.8038 153.0939 207° Southwest 427 790 25.100 1.483 Climbing Aus ATC (RADAR)
Mon 04:47:07 AM -27.8653 153.0579 207° Southwest 424 785 26.300 1.740 Climbing Aus ATC (RADAR)
Mon 04:48:12 AM -27.9771 152.9920 207° Southwest 419 776 28.000 1.425 Climbing Aus ATC (RADAR)
Mon 04:48:27 AM -28.0028 152.9769 207° Southwest 417 772 28.200 1.200 Climbing Aus ATC (RADAR)
Mon 04:49:02 AM -28.0626 152.9414 208° Southwest 419 776 29.000 947 Climbing Aus ATC (RADAR)
Mon 04:50:02 AM -28.1720 152.8886 203° Southwest 434 803 29.700 1.263 Climbing Aus ATC (RADAR)
Mon 04:50:37 AM -28.2388 152.8592 201° Southwest 441 816 31.000 2.133 Climbing Aus ATC (RADAR)
Mon 04:51:32 AM -28.3363 152.8166 201° Southwest 405 750 32.900 1.667 Climbing Aus ATC (RADAR)
Mon 04:52:07 AM -28.3971 152.7887 202° Southwest 406 752 33.500 1.200 Climbing Aus ATC (RADAR)
Mon 04:53:32 AM -28.5454 152.7224 201° Southwest 401 742 35.300 1.119 Climbing Aus ATC (RADAR)
Mon 04:54:21 AM -28.6317 152.6842 201° Southwest 401 742 36.000 385 Climbing Aus ATC (RADAR)
Mon 04:55:21 AM -28.7349 152.6383 201° Southwest 399 739 36.000  Level Aus ATC (RADAR)
Mon 04:56:01 AM -28.8038 152.6073 202° Southwest 401 742 36.000  Level Aus ATC (RADAR)
Mon 04:56:46 AM -28.8818 152.5718 202° Southwest 404 748 36.000  Level Aus ATC (RADAR)
Mon 04:57:21 AM -28.9429 152.5442 202° Southwest 407 753 36.000 50 Level Aus ATC (RADAR)
Mon 04:58:46 AM -29.0923 152.4764 202° Southwest 411 761 36.100  Climbing Aus ATC (RADAR)
Mon 04:59:06 AM -29.1272 152.4602 202° Southwest 408 756 36.000 -109 Descending Aus ATC (RADAR)
Mon 04:59:41 AM -29.1892 152.4334 201° Southwest 411 761 36.000  Level Aus ATC (RADAR)
Mon 05:00:46 AM -29.3029 152.3822 201° Southwest 407 753 36.000  Level Aus ATC (RADAR)
Mon 05:01:21 AM -29.3642 152.3544 202° Southwest 408 756 36.000  Level Aus ATC (RADAR)
Mon 05:02:06 AM -29.4426 152.3187 202° Southwest 406 752 36.000  Level Aus ATC (RADAR)
Mon 05:03:06 AM -29.5468 152.2717 201° Southwest 406 752 36.000  Level Aus ATC (RADAR)
Mon 05:03:35 AM -29.5988 152.2477 202° Southwest 405 750 36.000  Level Aus ATC (RADAR)
Mon 05:03:50 AM -29.6251 152.2356 202° Southwest 406 752 36.000  Level Aus ATC (RADAR)
Mon 05:04:26 AM -29.6859 152.2077 202° Southwest 406 752 36.000 -63 Level Aus ATC (RADAR)
Mon 05:05:26 AM -29.7906 152.1591 202° Southwest 409 758 35.900 -63 Descending Aus ATC (RADAR)
Mon 05:06:01 AM -29.8527 152.1314 201° Southwest 410 760 35.900  Level Aus ATC (RADAR)
Mon 05:06:55 AM -29.9502 152.0854 202° Southwest 416 771 35.900 67 Level Aus ATC (RADAR)
Mon 05:07:30 AM -30.0129 152.0566 202° Southwest 418 774 36.000  Climbing Aus ATC (RADAR)
Mon 05:08:50 AM -30.1580 151.9924 201° Southwest 420 777 35.900 -63 Descending Aus ATC (RADAR)
Mon 05:09:05 AM -30.1853 151.9803 201° Southwest 421 779 35.900  Level Aus ATC (RADAR)
Mon 05:09:40 AM -30.2484 151.9501 202° Southwest 422 782 35.900  Level Aus ATC (RADAR)
Mon 05:10:30 AM -30.3394 151.9076 202° Southwest 425 787 35.900 67 Level Aus ATC (RADAR)
Mon 05:11:10 AM -30.4128 151.8738 202° Southwest 425 787 36.000 60 Climbing Aus ATC (RADAR)
Mon 05:12:10 AM -30.5213 151.8217 202° Southwest 425 787 36.000  Level Aus ATC (RADAR)
Mon 05:12:44 AM -30.5855 151.7919 202° Southwest 426 789 36.000 -58 Level Aus ATC (RADAR)
Mon 05:13:54 AM -30.7135 151.7314 202° Southwest 427 790 35.900 -71 Descending Aus ATC (RADAR)
Mon 05:14:09 AM -30.7409 151.7182 203° Southwest 428 793 35.900  Level Aus ATC (RADAR)
Mon 05:14:44 AM -30.8055 151.6882 202° Southwest 429 795 35.900 63 Level Aus ATC (RADAR)
Mon 05:15:45 AM -30.9160 151.6358 202° Southwest 431 798 36.000  Climbing Aus ATC (RADAR)
Mon 05:16:19 AM -30.9804 151.6063 201° Southwest 429 795 35.900  Descending Aus ATC (RADAR)
Mon 05:17:14 AM -31.0816 151.5579 202° Southwest 430 797 36.000 67 Climbing Aus ATC (RADAR)
Mon 05:17:49 AM -31.1458 151.5277 202° Southwest 428 793 36.000 -57 Level Aus ATC (RADAR)
Mon 05:18:59 AM -31.2733 151.4677 202° Southwest 425 787 35.900 -71 Descending Aus ATC (RADAR)
Mon 05:19:14 AM -31.3004 151.4539 204° Southwest 426 789 35.900  Level Aus ATC (RADAR)
Mon 05:19:49 AM -31.3643 151.4246 201° Southwest 424 785 35.900 65 Level Aus ATC (RADAR)
Mon 05:20:46 AM -31.4685 151.3763 202° Southwest 425 787 36.000  Climbing Aus ATC (RADAR)
Mon 05:21:24 AM -31.5395 151.3446 201° Southwest 425 787 35.900  Descending Aus ATC (RADAR)
Mon 05:22:19 AM -31.6413 151.2996 201° Southwest 426 789 36.000  Climbing Aus ATC (RADAR)
Mon 05:22:53 AM -31.7063 151.2706 201° Southwest 428 793 35.900  Descending Aus ATC (RADAR)
Mon 05:24:48 AM -31.9211 151.1738 201° Southwest 433 801 36.000 46 Climbing Aus ATC (RADAR)
Mon 05:25:03 AM -31.9491 151.1608 201° Southwest 433 801 36.000  Level Aus ATC (RADAR)
Mon 05:25:38 AM -32.0147 151.1314 201° Southwest 432 800 36.000 -67 Level Aus ATC (RADAR)
Mon 05:26:33 AM -32.1171 151.0853 201° Southwest 429 795 35.900  Descending Aus ATC (RADAR)
Mon 05:27:08 AM -32.1822 151.0566 200° South 428 793 36.000 -267 Climbing Aus ATC (RADAR)
Mon 05:28:03 AM -32.2834 151.0104 201° Southwest 423 784 35.500 -1.080 Descending Aus ATC (RADAR)
Mon 05:28:48 AM -32.3655 150.9760 200° South 415 769 34.200 -2.520 Descending Aus ATC (RADAR)
Mon 05:29:43 AM -32.4767 150.9741 181° South 429 795 31.300 -3.267 Descending Aus ATC (RADAR)
Mon 05:30:18 AM -32.5494 150.9719 181° South 439 813 29.300 -2.897 Descending Aus ATC (RADAR)
Mon 05:31:10 AM -32.6564 150.9692 181° South 446 826 27.100 -2.597 Descending Aus ATC (RADAR)
Mon 05:31:25 AM -32.6869 150.9682 182° South 443 821 26.400 -2.520 Descending Aus ATC (RADAR)
Mon 05:32:00 AM -32.7578 150.9659 182° South 439 813 25.000 -2.533 Descending Aus ATC (RADAR)
Mon 05:32:55 AM -32.8671 150.9789 174° South 428 793 22.600 -2.540 Descending Aus ATC (RADAR)
Mon 05:34:17 AM -33.0286 151.0078 171° South 408 756 19.200 -2.474 Descending Aus ATC (RADAR)
Mon 05:34:32 AM -33.0569 151.0127 172° South 405 750 18.600 -2.400 Descending Aus ATC (RADAR)
Mon 05:35:07 AM -33.1215 151.0245 171° South 397 735 17.200 -1.533 Descending Aus ATC (RADAR)
Mon 05:36:02 AM -33.2195 151.0417 172° South 378 700 16.300 -1.000 Descending Aus ATC (RADAR)
Mon 05:36:37 AM -33.2807 151.0526 172° South 375 695 15.700 -1.400 Descending Aus ATC (RADAR)
Mon 05:37:32 AM -33.3767 151.0712 171° South 371 687 14.200 -2.079 Descending Aus ATC (RADAR)
Mon 05:38:44 AM -33.4992 151.0948 171° South 368 681 11.300 -2.291 Descending Aus ATC (RADAR)
Mon 05:39:22 AM -33.5616 151.1070 171° South 347 642 10.000 -2.151 Descending Aus ATC (RADAR)
Mon 05:39:37 AM -33.5856 151.1112 172° South 342 634 9.400 -1.837 Descending Aus ATC (RADAR)
Mon 05:40:11 AM -33.6406 151.1223 170° South 333 616 8.500 -966 Descending Aus ATC (RADAR)
Mon 05:41:04 AM -33.7197 151.1484 165° South 343 636 8.000 -477 Descending Aus ATC (RADAR)
Mon 05:41:39 AM -33.7683 151.1843 149° Southeast 348 644 7.800 -621 Descending Aus ATC (RADAR)
Mon 05:42:31 AM -33.8420 151.2383 149° Southeast 340 629 7.100 -716 Descending Aus ATC (RADAR)
Mon 05:42:46 AM -33.8626 151.2535 148° Southeast 338 626 7.000 -646 Descending Aus ATC (RADAR)
Mon 05:43:36 AM -33.9292 151.3024 149° Southeast 318 589 6.400 -635 Descending Aus ATC (RADAR)
Mon 05:44:11 AM -33.9724 151.3286 153° Southeast 292 541 6.100 -480 Descending Aus ATC (RADAR)
Mon 05:44:26 AM -33.9917 151.3326 170° South 281 520 6.000 -840 Descending Aus ATC (RADAR)
Mon 05:45:01 AM -34.0360 151.3441 168° South 271 502 5.400 -1.241 Descending Aus ATC (RADAR)
Mon 05:45:53 AM -34.1008 151.3529 174° South 272 504 4.200 -1.034 Descending Aus ATC (RADAR)
Mon 05:46:28 AM -34.1223 151.3160 235° Southwest 232 430 3.900 -918 Descending Aus ATC (RADAR)
Mon 05:47:31 AM -34.0987 151.2565 296° West 205 380 2.700 -1.125 Descending Aus ATC (RADAR)
Mon 05:47:48 AM -34.0860 151.2448 322° Northwest 203 377 2.400 -1.013 Descending Aus ATC (RADAR)
Mon 05:48:48 AM -34.0409 151.2123 329° Northwest 188 348 1.400 -927 Descending Aus ATC (RADAR)
Mon 05:49:38 AM -34.0060 151.2030 347° North 146 270 700 -738 Descending Aus ATC (RADAR)
Mon 05:49:53 AM -33.9967 151.2005 348° North 140 259 600 -600 Descending Aus ATC (RADAR)
Mon 05:50:28 AM -33.9750 151.1950 348° North 137 254 200 -390 Descending Aus ATC (RADAR)
Mon 05:51:10 AM -33.9541 151.1891 347° North 84 156 100 -143 Descending Aus ATC (RADAR)
Mon 05:53:00 AM -33.9461 151.1772 309° West  Level Estimated
Mon 06:00:00 AM -33.9461 151.1772 121° Southeast  Level Estimated
Mon 06:01:00 AM -33.9461 151.1772 121° Southeast  Level Estimated

Login

Don't have an account? Register now (free) for customized features, flight alerts, and more!